sensor_id;sensor_type;location;lat;lon;timestamp;P1;durP1;ratioP1;P2;durP2;ratioP2
21554;SDS011;10938;44.794;-0.676;2023-03-14T00:01:49;49.00;;;9.82;;
21554;SDS011;10938;44.794;-0.676;2023-03-14T00:04:15;63.60;;;10.20;;
21554;SDS011;10938;44.794;-0.676;2023-03-14T00:06:40;70.13;;;12.45;;
21554;SDS011;10938;44.794;-0.676;2023-03-14T00:09:06;60.17;;;10.23;;
21554;SDS011;10938;44.794;-0.676;2023-03-14T00:11:31;65.60;;;11.75;;
21554;SDS011;10938;44.794;-0.676;2023-03-14T00:13:56;57.83;;;9.53;;
21554;SDS011;10938;44.794;-0.676;2023-03-14T00:16:22;62.57;;;10.90;;
21554;SDS011;10938;44.794;-0.676;2023-03-14T00:18:47;56.38;;;9.82;;
21554;SDS011;10938;44.794;-0.676;2023-03-14T00:21:12;56.77;;;10.80;;
21554;SDS011;10938;44.794;-0.676;2023-03-14T00:23:38;63.15;;;11.23;;
21554;SDS011;10938;44.794;-0.676;2023-03-14T00:26:05;62.05;;;11.30;;
21554;SDS011;10938;44.794;-0.676;2023-03-14T00:28:30;54.78;;;10.38;;
21554;SDS011;10938;44.794;-0.676;2023-03-14T00:30:56;71.53;;;12.07;;
21554;SDS011;10938;44.794;-0.676;2023-03-14T00:33:21;68.10;;;10.55;;
21554;SDS011;10938;44.794;-0.676;2023-03-14T00:35:53;66.82;;;11.30;;
21554;SDS011;10938;44.794;-0.676;2023-03-14T00:38:19;60.85;;;10.63;;
21554;SDS011;10938;44.794;-0.676;2023-03-14T00:40:44;67.07;;;10.23;;
21554;SDS011;10938;44.794;-0.676;2023-03-14T00:43:09;70.03;;;11.50;;
21554;SDS011;10938;44.794;-0.676;2023-03-14T00:45:35;74.60;;;12.37;;
21554;SDS011;10938;44.794;-0.676;2023-03-14T00:48:00;75.15;;;12.10;;
21554;SDS011;10938;44.794;-0.676;2023-03-14T00:50:25;67.20;;;11.63;;
21554;SDS011;10938;44.794;-0.676;2023-03-14T00:52:51;73.53;;;12.43;;
21554;SDS011;10938;44.794;-0.676;2023-03-14T00:55:16;60.05;;;9.77;;
21554;SDS011;10938;44.794;-0.676;2023-03-14T00:57:41;55.13;;;9.33;;
21554;SDS011;10938;44.794;-0.676;2023-03-14T01:00:07;55.60;;;9.23;;
21554;SDS011;10938;44.794;-0.676;2023-03-14T01:02:35;56.88;;;9.52;;
21554;SDS011;10938;44.794;-0.676;2023-03-14T01:05:00;50.33;;;8.87;;
21554;SDS011;10938;44.794;-0.676;2023-03-14T01:07:26;42.00;;;7.57;;
21554;SDS011;10938;44.794;-0.676;2023-03-14T01:09:52;52.75;;;8.70;;
21554;SDS011;10938;44.794;-0.676;2023-03-14T01:12:17;43.00;;;7.68;;
21554;SDS011;10938;44.794;-0.676;2023-03-14T01:14:42;45.57;;;7.90;;
21554;SDS011;10938;44.794;-0.676;2023-03-14T01:17:08;54.58;;;8.55;;
21554;SDS011;10938;44.794;-0.676;2023-03-14T01:19:33;51.27;;;9.57;;
21554;SDS011;10938;44.794;-0.676;2023-03-14T01:21:58;50.57;;;8.03;;
21554;SDS011;10938;44.794;-0.676;2023-03-14T01:24:23;51.22;;;7.70;;
21554;SDS011;10938;44.794;-0.676;2023-03-14T01:26:49;41.90;;;7.75;;
21554;SDS011;10938;44.794;-0.676;2023-03-14T01:29:14;46.78;;;8.18;;
21554;SDS011;10938;44.794;-0.676;2023-03-14T01:31:39;41.83;;;7.47;;
21554;SDS011;10938;44.794;-0.676;2023-03-14T01:34:05;46.53;;;7.60;;
21554;SDS011;10938;44.794;-0.676;2023-03-14T01:36:30;46.77;;;8.67;;
21554;SDS011;10938;44.794;-0.676;2023-03-14T01:38:55;47.63;;;8.77;;
21554;SDS011;10938;44.794;-0.676;2023-03-14T01:41:22;48.67;;;8.93;;
21554;SDS011;10938;44.794;-0.676;2023-03-14T01:43:48;48.17;;;8.10;;
21554;SDS011;10938;44.794;-0.676;2023-03-14T01:48:46;53.75;;;9.93;;
21554;SDS011;10938;44.794;-0.676;2023-03-14T01:51:15;49.92;;;9.13;;
21554;SDS011;10938;44.794;-0.676;2023-03-14T01:53:41;44.67;;;8.35;;
21554;SDS011;10938;44.794;-0.676;2023-03-14T01:56:08;50.45;;;10.23;;
21554;SDS011;10938;44.794;-0.676;2023-03-14T01:58:34;54.03;;;9.05;;
21554;SDS011;10938;44.794;-0.676;2023-03-14T02:01:01;50.58;;;8.60;;
21554;SDS011;10938;44.794;-0.676;2023-03-14T02:03:27;54.78;;;9.00;;
21554;SDS011;10938;44.794;-0.676;2023-03-14T02:05:54;41.72;;;8.23;;
21554;SDS011;10938;44.794;-0.676;2023-03-14T02:08:20;58.42;;;9.20;;
21554;SDS011;10938;44.794;-0.676;2023-03-14T02:10:47;50.50;;;9.05;;
21554;SDS011;10938;44.794;-0.676;2023-03-14T02:13:14;49.65;;;9.73;;
21554;SDS011;10938;44.794;-0.676;2023-03-14T02:15:40;50.97;;;9.77;;
21554;SDS011;10938;44.794;-0.676;2023-03-14T02:18:06;44.80;;;8.45;;
21554;SDS011;10938;44.794;-0.676;2023-03-14T02:23:00;47.35;;;8.20;;
21554;SDS011;10938;44.794;-0.676;2023-03-14T02:26:28;48.17;;;8.73;;
21554;SDS011;10938;44.794;-0.676;2023-03-14T02:28:20;40.70;;;7.18;;
21554;SDS011;10938;44.794;-0.676;2023-03-14T02:30:46;48.08;;;8.80;;
21554;SDS011;10938;44.794;-0.676;2023-03-14T02:33:16;43.83;;;7.82;;
21554;SDS011;10938;44.794;-0.676;2023-03-14T02:35:43;40.30;;;7.57;;
21554;SDS011;10938;44.794;-0.676;2023-03-14T02:38:23;51.13;;;8.52;;
21554;SDS011;10938;44.794;-0.676;2023-03-14T02:40:49;43.25;;;7.68;;
21554;SDS011;10938;44.794;-0.676;2023-03-14T02:43:15;41.28;;;7.82;;
21554;SDS011;10938;44.794;-0.676;2023-03-14T02:45:45;49.97;;;8.13;;
21554;SDS011;10938;44.794;-0.676;2023-03-14T02:48:13;45.22;;;8.65;;
21554;SDS011;10938;44.794;-0.676;2023-03-14T02:50:39;47.58;;;8.40;;
21554;SDS011;10938;44.794;-0.676;2023-03-14T02:53:04;44.65;;;7.60;;
21554;SDS011;10938;44.794;-0.676;2023-03-14T02:55:31;45.78;;;8.10;;
21554;SDS011;10938;44.794;-0.676;2023-03-14T02:58:00;42.53;;;7.22;;
21554;SDS011;10938;44.794;-0.676;2023-03-14T03:00:26;34.33;;;6.97;;
21554;SDS011;10938;44.794;-0.676;2023-03-14T03:02:51;43.13;;;7.70;;
21554;SDS011;10938;44.794;-0.676;2023-03-14T03:05:17;39.08;;;7.68;;
21554;SDS011;10938;44.794;-0.676;2023-03-14T03:07:42;39.42;;;7.72;;
21554;SDS011;10938;44.794;-0.676;2023-03-14T03:10:07;39.70;;;7.83;;
21554;SDS011;10938;44.794;-0.676;2023-03-14T03:12:33;51.83;;;8.32;;
21554;SDS011;10938;44.794;-0.676;2023-03-14T03:14:58;42.50;;;8.67;;
21554;SDS011;10938;44.794;-0.676;2023-03-14T03:17:24;37.93;;;7.27;;
21554;SDS011;10938;44.794;-0.676;2023-03-14T03:19:49;32.47;;;5.57;;
21554;SDS011;10938;44.794;-0.676;2023-03-14T03:22:14;34.40;;;7.25;;
21554;SDS011;10938;44.794;-0.676;2023-03-14T03:24:40;38.22;;;6.93;;
21554;SDS011;10938;44.794;-0.676;2023-03-14T03:27:05;35.90;;;6.53;;
21554;SDS011;10938;44.794;-0.676;2023-03-14T03:29:30;32.15;;;6.68;;
21554;SDS011;10938;44.794;-0.676;2023-03-14T03:31:56;40.60;;;7.63;;
21554;SDS011;10938;44.794;-0.676;2023-03-14T03:34:24;33.38;;;6.53;;
21554;SDS011;10938;44.794;-0.676;2023-03-14T03:36:50;28.75;;;6.15;;
21554;SDS011;10938;44.794;-0.676;2023-03-14T03:39:15;32.40;;;6.35;;
21554;SDS011;10938;44.794;-0.676;2023-03-14T03:41:40;35.00;;;6.37;;
21554;SDS011;10938;44.794;-0.676;2023-03-14T03:44:06;38.53;;;6.53;;
21554;SDS011;10938;44.794;-0.676;2023-03-14T03:46:31;39.75;;;6.88;;
21554;SDS011;10938;44.794;-0.676;2023-03-14T03:48:57;36.53;;;6.90;;
21554;SDS011;10938;44.794;-0.676;2023-03-14T03:51:23;37.85;;;7.32;;
21554;SDS011;10938;44.794;-0.676;2023-03-14T03:53:48;36.40;;;6.32;;
21554;SDS011;10938;44.794;-0.676;2023-03-14T03:56:13;40.13;;;8.43;;
21554;SDS011;10938;44.794;-0.676;2023-03-14T03:58:38;38.77;;;7.17;;
21554;SDS011;10938;44.794;-0.676;2023-03-14T04:01:04;40.85;;;6.95;;
21554;SDS011;10938;44.794;-0.676;2023-03-14T04:03:30;36.92;;;7.18;;
21554;SDS011;10938;44.794;-0.676;2023-03-14T04:06:02;41.63;;;7.40;;
21554;SDS011;10938;44.794;-0.676;2023-03-14T04:08:28;38.22;;;7.25;;
21554;SDS011;10938;44.794;-0.676;2023-03-14T04:10:56;31.90;;;6.28;;
21554;SDS011;10938;44.794;-0.676;2023-03-14T04:13:22;50.75;;;7.30;;
21554;SDS011;10938;44.794;-0.676;2023-03-14T04:15:48;37.88;;;7.25;;
21554;SDS011;10938;44.794;-0.676;2023-03-14T04:18:13;34.60;;;6.93;;
21554;SDS011;10938;44.794;-0.676;2023-03-14T04:20:38;36.47;;;6.50;;
21554;SDS011;10938;44.794;-0.676;2023-03-14T04:23:03;37.20;;;7.10;;
21554;SDS011;10938;44.794;-0.676;2023-03-14T04:25:29;32.33;;;6.73;;
21554;SDS011;10938;44.794;-0.676;2023-03-14T04:27:54;33.83;;;6.97;;
21554;SDS011;10938;44.794;-0.676;2023-03-14T04:30:19;32.93;;;6.63;;
21554;SDS011;10938;44.794;-0.676;2023-03-14T04:32:44;32.57;;;6.37;;
21554;SDS011;10938;44.794;-0.676;2023-03-14T04:35:10;36.63;;;6.53;;
21554;SDS011;10938;44.794;-0.676;2023-03-14T04:37:35;30.43;;;6.33;;
21554;SDS011;10938;44.794;-0.676;2023-03-14T04:40:00;34.58;;;6.05;;
21554;SDS011;10938;44.794;-0.676;2023-03-14T04:42:26;42.80;;;7.45;;
21554;SDS011;10938;44.794;-0.676;2023-03-14T04:44:51;35.55;;;6.32;;
21554;SDS011;10938;44.794;-0.676;2023-03-14T04:47:16;33.40;;;6.25;;
21554;SDS011;10938;44.794;-0.676;2023-03-14T04:49:42;39.40;;;7.32;;
21554;SDS011;10938;44.794;-0.676;2023-03-14T04:52:07;35.27;;;6.80;;
21554;SDS011;10938;44.794;-0.676;2023-03-14T04:54:32;41.60;;;8.13;;
21554;SDS011;10938;44.794;-0.676;2023-03-14T04:56:57;40.70;;;8.20;;
21554;SDS011;10938;44.794;-0.676;2023-03-14T04:59:23;39.55;;;7.32;;
21554;SDS011;10938;44.794;-0.676;2023-03-14T05:01:48;46.93;;;7.80;;
21554;SDS011;10938;44.794;-0.676;2023-03-14T05:04:14;41.17;;;8.18;;
21554;SDS011;10938;44.794;-0.676;2023-03-14T05:06:40;47.95;;;8.07;;
21554;SDS011;10938;44.794;-0.676;2023-03-14T05:09:07;50.58;;;9.02;;
21554;SDS011;10938;44.794;-0.676;2023-03-14T05:11:32;51.88;;;9.70;;
21554;SDS011;10938;44.794;-0.676;2023-03-14T05:13:57;46.67;;;8.73;;
21554;SDS011;10938;44.794;-0.676;2023-03-14T05:16:23;35.90;;;6.95;;
21554;SDS011;10938;44.794;-0.676;2023-03-14T05:18:48;41.53;;;7.15;;
21554;SDS011;10938;44.794;-0.676;2023-03-14T05:21:13;41.55;;;8.38;;
21554;SDS011;10938;44.794;-0.676;2023-03-14T05:23:39;40.78;;;8.27;;
21554;SDS011;10938;44.794;-0.676;2023-03-14T05:26:04;39.10;;;7.50;;
21554;SDS011;10938;44.794;-0.676;2023-03-14T05:28:29;40.03;;;7.45;;
21554;SDS011;10938;44.794;-0.676;2023-03-14T05:30:55;44.37;;;7.70;;
21554;SDS011;10938;44.794;-0.676;2023-03-14T05:33:20;40.15;;;8.43;;
21554;SDS011;10938;44.794;-0.676;2023-03-14T05:35:45;54.20;;;9.38;;
21554;SDS011;10938;44.794;-0.676;2023-03-14T05:38:11;50.65;;;9.13;;
21554;SDS011;10938;44.794;-0.676;2023-03-14T05:40:36;42.10;;;7.50;;
21554;SDS011;10938;44.794;-0.676;2023-03-14T05:43:01;49.87;;;9.03;;
21554;SDS011;10938;44.794;-0.676;2023-03-14T05:45:27;54.42;;;9.10;;
21554;SDS011;10938;44.794;-0.676;2023-03-14T05:47:52;47.40;;;9.13;;
21554;SDS011;10938;44.794;-0.676;2023-03-14T05:50:17;47.70;;;8.75;;
21554;SDS011;10938;44.794;-0.676;2023-03-14T05:52:43;47.58;;;8.50;;
21554;SDS011;10938;44.794;-0.676;2023-03-14T05:55:08;47.55;;;9.02;;
21554;SDS011;10938;44.794;-0.676;2023-03-14T05:57:34;47.78;;;8.40;;
21554;SDS011;10938;44.794;-0.676;2023-03-14T05:59:59;52.35;;;8.75;;
21554;SDS011;10938;44.794;-0.676;2023-03-14T06:02:24;46.23;;;8.70;;
21554;SDS011;10938;44.794;-0.676;2023-03-14T06:04:49;43.40;;;8.13;;
21554;SDS011;10938;44.794;-0.676;2023-03-14T06:07:15;43.17;;;8.07;;
21554;SDS011;10938;44.794;-0.676;2023-03-14T06:09:40;51.57;;;8.30;;
21554;SDS011;10938;44.794;-0.676;2023-03-14T06:12:05;49.27;;;8.87;;
21554;SDS011;10938;44.794;-0.676;2023-03-14T06:14:31;36.47;;;7.78;;
21554;SDS011;10938;44.794;-0.676;2023-03-14T06:16:56;52.35;;;8.93;;
21554;SDS011;10938;44.794;-0.676;2023-03-14T06:19:24;36.95;;;7.80;;
21554;SDS011;10938;44.794;-0.676;2023-03-14T06:21:49;42.35;;;8.35;;
21554;SDS011;10938;44.794;-0.676;2023-03-14T06:24:15;44.88;;;8.80;;
21554;SDS011;10938;44.794;-0.676;2023-03-14T06:26:40;44.75;;;8.35;;
21554;SDS011;10938;44.794;-0.676;2023-03-14T06:29:05;41.03;;;7.73;;
21554;SDS011;10938;44.794;-0.676;2023-03-14T06:31:31;41.60;;;8.15;;
21554;SDS011;10938;44.794;-0.676;2023-03-14T06:33:56;42.10;;;8.05;;
21554;SDS011;10938;44.794;-0.676;2023-03-14T06:36:22;42.92;;;8.35;;
21554;SDS011;10938;44.794;-0.676;2023-03-14T06:38:47;34.42;;;7.72;;
21554;SDS011;10938;44.794;-0.676;2023-03-14T06:41:12;45.60;;;7.63;;
21554;SDS011;10938;44.794;-0.676;2023-03-14T06:43:38;38.17;;;7.27;;
21554;SDS011;10938;44.794;-0.676;2023-03-14T06:46:03;36.60;;;7.82;;
21554;SDS011;10938;44.794;-0.676;2023-03-14T06:48:28;44.47;;;7.75;;
21554;SDS011;10938;44.794;-0.676;2023-03-14T06:50:53;33.67;;;7.10;;
21554;SDS011;10938;44.794;-0.676;2023-03-14T06:53:19;37.83;;;7.40;;
21554;SDS011;10938;44.794;-0.676;2023-03-14T06:55:44;36.40;;;8.18;;
21554;SDS011;10938;44.794;-0.676;2023-03-14T06:58:10;38.15;;;7.10;;
21554;SDS011;10938;44.794;-0.676;2023-03-14T07:00:36;43.03;;;8.55;;
21554;SDS011;10938;44.794;-0.676;2023-03-14T07:03:01;31.60;;;7.43;;
21554;SDS011;10938;44.794;-0.676;2023-03-14T07:05:26;33.60;;;7.13;;
21554;SDS011;10938;44.794;-0.676;2023-03-14T07:07:52;34.72;;;8.18;;
21554;SDS011;10938;44.794;-0.676;2023-03-14T07:10:17;32.60;;;7.90;;
21554;SDS011;10938;44.794;-0.676;2023-03-14T07:12:42;35.95;;;7.53;;
21554;SDS011;10938;44.794;-0.676;2023-03-14T07:15:08;38.33;;;7.22;;
21554;SDS011;10938;44.794;-0.676;2023-03-14T07:17:33;41.38;;;8.50;;
21554;SDS011;10938;44.794;-0.676;2023-03-14T07:19:59;38.33;;;7.73;;
21554;SDS011;10938;44.794;-0.676;2023-03-14T07:22:25;42.47;;;8.05;;
21554;SDS011;10938;44.794;-0.676;2023-03-14T07:24:50;41.57;;;7.63;;
21554;SDS011;10938;44.794;-0.676;2023-03-14T07:27:15;38.50;;;6.87;;
21554;SDS011;10938;44.794;-0.676;2023-03-14T07:29:41;37.60;;;7.50;;
21554;SDS011;10938;44.794;-0.676;2023-03-14T07:32:06;42.10;;;7.75;;
21554;SDS011;10938;44.794;-0.676;2023-03-14T07:34:32;37.70;;;6.30;;
21554;SDS011;10938;44.794;-0.676;2023-03-14T07:36:58;36.25;;;6.43;;
21554;SDS011;10938;44.794;-0.676;2023-03-14T07:39:23;26.50;;;5.75;;
21554;SDS011;10938;44.794;-0.676;2023-03-14T07:41:48;23.87;;;5.63;;
21554;SDS011;10938;44.794;-0.676;2023-03-14T07:44:14;25.23;;;5.47;;
21554;SDS011;10938;44.794;-0.676;2023-03-14T07:46:39;20.93;;;4.67;;
21554;SDS011;10938;44.794;-0.676;2023-03-14T07:49:04;29.83;;;5.67;;
21554;SDS011;10938;44.794;-0.676;2023-03-14T07:51:29;22.08;;;4.78;;
21554;SDS011;10938;44.794;-0.676;2023-03-14T07:53:55;21.70;;;4.60;;
21554;SDS011;10938;44.794;-0.676;2023-03-14T07:56:20;17.30;;;4.17;;
21554;SDS011;10938;44.794;-0.676;2023-03-14T07:58:45;19.47;;;4.03;;
21554;SDS011;10938;44.794;-0.676;2023-03-14T08:01:11;17.17;;;3.93;;
21554;SDS011;10938;44.794;-0.676;2023-03-14T08:03:36;18.33;;;4.55;;
21554;SDS011;10938;44.794;-0.676;2023-03-14T08:06:01;18.45;;;3.80;;
21554;SDS011;10938;44.794;-0.676;2023-03-14T08:08:27;16.73;;;3.93;;
21554;SDS011;10938;44.794;-0.676;2023-03-14T08:10:52;14.17;;;3.67;;
21554;SDS011;10938;44.794;-0.676;2023-03-14T08:13:17;14.87;;;3.60;;
21554;SDS011;10938;44.794;-0.676;2023-03-14T08:15:42;13.27;;;3.20;;
21554;SDS011;10938;44.794;-0.676;2023-03-14T08:18:12;13.93;;;4.10;;
21554;SDS011;10938;44.794;-0.676;2023-03-14T08:20:37;14.73;;;3.50;;
21554;SDS011;10938;44.794;-0.676;2023-03-14T08:23:03;16.27;;;3.95;;
21554;SDS011;10938;44.794;-0.676;2023-03-14T08:25:28;14.50;;;3.88;;
21554;SDS011;10938;44.794;-0.676;2023-03-14T08:27:53;14.30;;;3.60;;
21554;SDS011;10938;44.794;-0.676;2023-03-14T08:30:19;13.82;;;4.18;;
21554;SDS011;10938;44.794;-0.676;2023-03-14T08:32:45;13.85;;;4.07;;
21554;SDS011;10938;44.794;-0.676;2023-03-14T08:35:10;13.15;;;3.35;;
21554;SDS011;10938;44.794;-0.676;2023-03-14T08:37:36;13.55;;;3.75;;
21554;SDS011;10938;44.794;-0.676;2023-03-14T08:40:02;18.77;;;4.50;;
21554;SDS011;10938;44.794;-0.676;2023-03-14T08:42:31;17.33;;;4.53;;
21554;SDS011;10938;44.794;-0.676;2023-03-14T08:44:56;21.35;;;4.75;;
21554;SDS011;10938;44.794;-0.676;2023-03-14T08:47:21;16.00;;;4.30;;
21554;SDS011;10938;44.794;-0.676;2023-03-14T08:49:50;27.20;;;4.73;;
21554;SDS011;10938;44.794;-0.676;2023-03-14T08:52:15;20.95;;;5.25;;
21554;SDS011;10938;44.794;-0.676;2023-03-14T08:54:42;19.83;;;4.57;;
21554;SDS011;10938;44.794;-0.676;2023-03-14T08:57:08;24.17;;;5.38;;
21554;SDS011;10938;44.794;-0.676;2023-03-14T08:59:33;25.80;;;5.83;;
21554;SDS011;10938;44.794;-0.676;2023-03-14T09:01:58;25.33;;;5.93;;
21554;SDS011;10938;44.794;-0.676;2023-03-14T09:04:24;20.23;;;5.17;;
21554;SDS011;10938;44.794;-0.676;2023-03-14T09:06:49;25.57;;;5.57;;
21554;SDS011;10938;44.794;-0.676;2023-03-14T09:09:14;33.28;;;5.78;;
21554;SDS011;10938;44.794;-0.676;2023-03-14T09:11:39;27.47;;;6.13;;
21554;SDS011;10938;44.794;-0.676;2023-03-14T09:14:05;28.35;;;5.32;;
21554;SDS011;10938;44.794;-0.676;2023-03-14T09:16:30;27.80;;;5.95;;
21554;SDS011;10938;44.794;-0.676;2023-03-14T09:18:55;21.02;;;5.20;;
21554;SDS011;10938;44.794;-0.676;2023-03-14T09:21:24;25.75;;;5.30;;
21554;SDS011;10938;44.794;-0.676;2023-03-14T09:23:49;24.73;;;6.30;;
21554;SDS011;10938;44.794;-0.676;2023-03-14T09:26:15;22.97;;;5.70;;
21554;SDS011;10938;44.794;-0.676;2023-03-14T09:28:40;24.67;;;5.80;;
21554;SDS011;10938;44.794;-0.676;2023-03-14T09:31:09;25.37;;;5.17;;
21554;SDS011;10938;44.794;-0.676;2023-03-14T09:33:35;25.48;;;5.22;;
21554;SDS011;10938;44.794;-0.676;2023-03-14T09:36:01;23.02;;;5.47;;
21554;SDS011;10938;44.794;-0.676;2023-03-14T09:38:26;21.20;;;4.40;;
21554;SDS011;10938;44.794;-0.676;2023-03-14T09:40:52;26.60;;;4.97;;
21554;SDS011;10938;44.794;-0.676;2023-03-14T09:43:18;23.33;;;4.90;;
21554;SDS011;10938;44.794;-0.676;2023-03-14T09:45:44;23.15;;;5.35;;
21554;SDS011;10938;44.794;-0.676;2023-03-14T09:48:13;22.27;;;4.50;;
21554;SDS011;10938;44.794;-0.676;2023-03-14T09:50:43;22.92;;;4.75;;
21554;SDS011;10938;44.794;-0.676;2023-03-14T09:53:10;22.02;;;4.82;;
21554;SDS011;10938;44.794;-0.676;2023-03-14T09:55:36;18.15;;;4.05;;
21554;SDS011;10938;44.794;-0.676;2023-03-14T09:58:03;26.03;;;3.93;;
21554;SDS011;10938;44.794;-0.676;2023-03-14T10:00:30;23.17;;;5.35;;
21554;SDS011;10938;44.794;-0.676;2023-03-14T10:02:57;21.10;;;4.53;;
21554;SDS011;10938;44.794;-0.676;2023-03-14T10:05:24;19.80;;;3.90;;
21554;SDS011;10938;44.794;-0.676;2023-03-14T10:07:51;17.05;;;3.95;;
21554;SDS011;10938;44.794;-0.676;2023-03-14T10:10:18;13.53;;;3.47;;
21554;SDS011;10938;44.794;-0.676;2023-03-14T10:12:45;16.00;;;3.90;;
21554;SDS011;10938;44.794;-0.676;2023-03-14T10:15:12;18.90;;;4.20;;
21554;SDS011;10938;44.794;-0.676;2023-03-14T10:17:49;21.25;;;4.38;;
21554;SDS011;10938;44.794;-0.676;2023-03-14T10:20:37;21.95;;;4.65;;
21554;SDS011;10938;44.794;-0.676;2023-03-14T10:23:05;21.80;;;4.30;;
21554;SDS011;10938;44.794;-0.676;2023-03-14T10:25:32;25.02;;;5.45;;
21554;SDS011;10938;44.794;-0.676;2023-03-14T10:27:58;23.45;;;4.95;;
21554;SDS011;10938;44.794;-0.676;2023-03-14T10:30:28;21.80;;;4.72;;
21554;SDS011;10938;44.794;-0.676;2023-03-14T10:32:56;17.77;;;4.10;;
21554;SDS011;10938;44.794;-0.676;2023-03-14T10:35:22;18.10;;;4.40;;
21554;SDS011;10938;44.794;-0.676;2023-03-14T10:37:57;16.30;;;4.75;;
21554;SDS011;10938;44.794;-0.676;2023-03-14T10:42:49;18.33;;;4.40;;
21554;SDS011;10938;44.794;-0.676;2023-03-14T10:45:31;16.52;;;4.13;;
21554;SDS011;10938;44.794;-0.676;2023-03-14T10:48:34;17.67;;;4.10;;
21554;SDS011;10938;44.794;-0.676;2023-03-14T10:53:20;17.95;;;4.22;;
21554;SDS011;10938;44.794;-0.676;2023-03-14T10:55:46;21.23;;;4.53;;
21554;SDS011;10938;44.794;-0.676;2023-03-14T10:58:21;23.95;;;4.20;;
21554;SDS011;10938;44.794;-0.676;2023-03-14T11:00:50;21.58;;;4.65;;
21554;SDS011;10938;44.794;-0.676;2023-03-14T11:03:16;21.23;;;4.50;;
21554;SDS011;10938;44.794;-0.676;2023-03-14T11:05:55;19.73;;;4.50;;
21554;SDS011;10938;44.794;-0.676;2023-03-14T11:08:55;17.17;;;4.30;;
21554;SDS011;10938;44.794;-0.676;2023-03-14T11:11:19;21.65;;;4.85;;
21554;SDS011;10938;44.794;-0.676;2023-03-14T11:14:06;18.80;;;4.88;;
21554;SDS011;10938;44.794;-0.676;2023-03-14T11:29:26;26.37;;;5.57;;
21554;SDS011;10938;44.794;-0.676;2023-03-14T11:35:01;31.07;;;5.90;;
21554;SDS011;10938;44.794;-0.676;2023-03-14T11:37:17;24.88;;;4.90;;
21554;SDS011;10938;44.794;-0.676;2023-03-14T11:39:45;24.60;;;5.10;;
21554;SDS011;10938;44.794;-0.676;2023-03-14T11:42:15;22.20;;;4.20;;
21554;SDS011;10938;44.794;-0.676;2023-03-14T11:44:41;17.92;;;3.42;;
21554;SDS011;10938;44.794;-0.676;2023-03-14T11:49:39;17.38;;;3.50;;
21554;SDS011;10938;44.794;-0.676;2023-03-14T11:52:25;9.13;;;2.30;;
21554;SDS011;10938;44.794;-0.676;2023-03-14T11:57:21;6.63;;;1.50;;
21554;SDS011;10938;44.794;-0.676;2023-03-14T12:02:15;6.97;;;1.87;;
21554;SDS011;10938;44.794;-0.676;2023-03-14T12:07:29;6.30;;;1.48;;
21554;SDS011;10938;44.794;-0.676;2023-03-14T12:09:58;7.32;;;1.33;;
21554;SDS011;10938;44.794;-0.676;2023-03-14T12:12:24;6.10;;;1.40;;
21554;SDS011;10938;44.794;-0.676;2023-03-14T12:15:33;10.73;;;2.00;;
21554;SDS011;10938;44.794;-0.676;2023-03-14T12:17:42;8.93;;;2.20;;
21554;SDS011;10938;44.794;-0.676;2023-03-14T12:22:52;9.63;;;1.70;;
21554;SDS011;10938;44.794;-0.676;2023-03-14T12:25:20;9.63;;;1.90;;
21554;SDS011;10938;44.794;-0.676;2023-03-14T12:27:49;6.55;;;1.70;;
21554;SDS011;10938;44.794;-0.676;2023-03-14T12:30:32;10.98;;;2.33;;
21554;SDS011;10938;44.794;-0.676;2023-03-14T12:38:18;8.93;;;2.00;;
21554;SDS011;10938;44.794;-0.676;2023-03-14T12:43:29;9.93;;;2.17;;
21554;SDS011;10938;44.794;-0.676;2023-03-14T12:46:37;10.30;;;2.25;;
21554;SDS011;10938;44.794;-0.676;2023-03-14T12:48:50;7.25;;;1.98;;
21554;SDS011;10938;44.794;-0.676;2023-03-14T12:51:19;11.03;;;2.23;;
21554;SDS011;10938;44.794;-0.676;2023-03-14T12:56:40;8.55;;;1.58;;
21554;SDS011;10938;44.794;-0.676;2023-03-14T12:59:28;9.05;;;2.08;;
21554;SDS011;10938;44.794;-0.676;2023-03-14T13:01:56;11.05;;;2.08;;
21554;SDS011;10938;44.794;-0.676;2023-03-14T13:04:59;15.18;;;2.25;;
21554;SDS011;10938;44.794;-0.676;2023-03-14T13:07:30;11.90;;;2.40;;
21554;SDS011;10938;44.794;-0.676;2023-03-14T13:10:15;12.90;;;2.47;;
21554;SDS011;10938;44.794;-0.676;2023-03-14T13:17:44;15.80;;;2.20;;
21554;SDS011;10938;44.794;-0.676;2023-03-14T13:20:52;10.80;;;2.40;;
21554;SDS011;10938;44.794;-0.676;2023-03-14T13:22:57;12.50;;;2.30;;
21554;SDS011;10938;44.794;-0.676;2023-03-14T13:25:23;15.23;;;3.25;;
21554;SDS011;10938;44.794;-0.676;2023-03-14T13:27:48;15.25;;;2.80;;
21554;SDS011;10938;44.794;-0.676;2023-03-14T13:30:22;12.98;;;2.90;;
21554;SDS011;10938;44.794;-0.676;2023-03-14T13:32:47;10.25;;;2.22;;
21554;SDS011;10938;44.794;-0.676;2023-03-14T13:35:14;12.50;;;2.78;;
21554;SDS011;10938;44.794;-0.676;2023-03-14T13:37:59;12.82;;;2.72;;
21554;SDS011;10938;44.794;-0.676;2023-03-14T13:40:26;13.18;;;2.30;;
21554;SDS011;10938;44.794;-0.676;2023-03-14T13:43:11;12.07;;;2.45;;
21554;SDS011;10938;44.794;-0.676;2023-03-14T13:46:01;16.15;;;2.72;;
21554;SDS011;10938;44.794;-0.676;2023-03-14T13:48:27;11.95;;;2.60;;
21554;SDS011;10938;44.794;-0.676;2023-03-14T13:51:16;21.23;;;3.53;;
21554;SDS011;10938;44.794;-0.676;2023-03-14T13:53:49;13.05;;;2.78;;
21554;SDS011;10938;44.794;-0.676;2023-03-14T13:56:18;9.65;;;2.05;;
21554;SDS011;10938;44.794;-0.676;2023-03-14T13:58:43;11.85;;;2.78;;
21554;SDS011;10938;44.794;-0.676;2023-03-14T14:01:13;9.32;;;2.47;;
21554;SDS011;10938;44.794;-0.676;2023-03-14T14:03:39;12.02;;;2.38;;
21554;SDS011;10938;44.794;-0.676;2023-03-14T14:06:08;8.63;;;2.08;;
21554;SDS011;10938;44.794;-0.676;2023-03-14T14:08:34;11.18;;;2.35;;
21554;SDS011;10938;44.794;-0.676;2023-03-14T14:11:00;10.30;;;2.25;;
21554;SDS011;10938;44.794;-0.676;2023-03-14T14:13:27;11.93;;;2.70;;
21554;SDS011;10938;44.794;-0.676;2023-03-14T14:15:54;12.10;;;2.40;;
21554;SDS011;10938;44.794;-0.676;2023-03-14T14:18:21;12.88;;;2.58;;
21554;SDS011;10938;44.794;-0.676;2023-03-14T14:20:47;10.23;;;2.50;;
21554;SDS011;10938;44.794;-0.676;2023-03-14T14:23:14;10.45;;;2.10;;
21554;SDS011;10938;44.794;-0.676;2023-03-14T14:25:40;16.88;;;3.33;;
21554;SDS011;10938;44.794;-0.676;2023-03-14T14:30:47;12.70;;;2.97;;
21554;SDS011;10938;44.794;-0.676;2023-03-14T14:33:23;19.67;;;3.50;;
21554;SDS011;10938;44.794;-0.676;2023-03-14T14:35:56;11.67;;;3.57;;
21554;SDS011;10938;44.794;-0.676;2023-03-14T14:38:22;17.30;;;3.28;;
21554;SDS011;10938;44.794;-0.676;2023-03-14T14:40:49;10.93;;;2.53;;
21554;SDS011;10938;44.794;-0.676;2023-03-14T14:43:22;9.93;;;2.35;;
21554;SDS011;10938;44.794;-0.676;2023-03-14T14:45:49;10.52;;;2.30;;
21554;SDS011;10938;44.794;-0.676;2023-03-14T14:48:15;8.50;;;2.05;;
21554;SDS011;10938;44.794;-0.676;2023-03-14T14:55:42;15.50;;;2.90;;
21554;SDS011;10938;44.794;-0.676;2023-03-14T14:58:27;12.48;;;2.22;;
21554;SDS011;10938;44.794;-0.676;2023-03-14T15:00:55;9.10;;;1.90;;
21554;SDS011;10938;44.794;-0.676;2023-03-14T15:03:21;10.45;;;2.35;;
21554;SDS011;10938;44.794;-0.676;2023-03-14T15:05:46;8.65;;;2.13;;
21554;SDS011;10938;44.794;-0.676;2023-03-14T15:08:11;10.67;;;2.17;;
21554;SDS011;10938;44.794;-0.676;2023-03-14T15:10:37;9.82;;;2.58;;
21554;SDS011;10938;44.794;-0.676;2023-03-14T15:13:03;13.77;;;2.40;;
21554;SDS011;10938;44.794;-0.676;2023-03-14T15:15:28;11.70;;;2.63;;
21554;SDS011;10938;44.794;-0.676;2023-03-14T15:17:53;8.53;;;2.47;;
21554;SDS011;10938;44.794;-0.676;2023-03-14T15:20:19;10.80;;;2.40;;
21554;SDS011;10938;44.794;-0.676;2023-03-14T15:22:45;13.15;;;2.60;;
21554;SDS011;10938;44.794;-0.676;2023-03-14T15:25:10;15.38;;;2.55;;